Terminal Aerodrome Forecast
Issued by NWS

Home | Current Version | Previous Version | Text Only | Print | Product List | Glossary Off
Versions: 1 2 3 4 5 6 7 8 9 10 11 12 13

000
FTUS43 KMPX 230520
TAFAXN
TAF
KAXN 230520Z 2306/2406 18016G25KT P6SM SKC
     FM230930 18014KT P6SM SKC WS020/22045KT
     FM231430 18015G21KT P6SM SKC
     FM231830 19018G26KT P6SM SCT250
     FM240100 17009KT P6SM SCT120 BKN250=

USA.gov is the U.S. government's official web portal to all federal, state and local government web resources and services.